createdAt,value
2022-12-15T00:00:34.322Z,94.14
2022-12-15T00:03:24.591Z,94.24
2022-12-15T00:06:11.111Z,95.12
2022-12-15T00:08:59.068Z,95.19
2022-12-15T00:11:45.146Z,96.04
2022-12-15T00:14:31.429Z,96.00
2022-12-15T00:17:17.601Z,96.68
2022-12-15T00:20:03.670Z,96.49
2022-12-15T00:22:49.766Z,96.63
2022-12-15T00:25:37.222Z,97.07
2022-12-15T00:28:23.425Z,97.05
2022-12-15T00:31:09.421Z,97.14
2022-12-15T00:33:55.704Z,96.94
2022-12-15T00:36:41.900Z,96.75
2022-12-15T00:39:10.459Z,96.42
2022-12-15T00:41:40.466Z,95.87
2022-12-15T00:44:09.239Z,95.97
2022-12-15T00:46:55.120Z,95.57
2022-12-15T00:49:41.654Z,95.77
2022-12-15T00:52:28.158Z,95.81
2022-12-15T00:55:14.294Z,95.60
2022-12-15T00:58:01.504Z,96.25
2022-12-15T01:00:48.335Z,96.72
2022-12-15T01:03:37.255Z,96.87
2022-12-15T01:06:25.207Z,97.06
2022-12-15T01:09:11.261Z,97.03
2022-12-15T01:11:57.880Z,97.78
2022-12-15T01:14:47.063Z,97.44
2022-12-15T01:17:33.551Z,97.33
2022-12-15T01:20:15.142Z,96.71
2022-12-15T01:22:44.084Z,97.22
2022-12-15T01:25:13.406Z,97.28
2022-12-15T01:27:42.025Z,96.64
2022-12-15T01:30:13.935Z,96.75
2022-12-15T01:32:46.189Z,96.50
2022-12-15T01:35:15.332Z,95.83
2022-12-15T01:37:43.929Z,96.02
2022-12-15T01:40:32.300Z,96.21
2022-12-15T01:43:00.915Z,96.06
2022-12-15T01:45:52.271Z,95.79
2022-12-15T01:48:25.369Z,95.92
2022-12-15T01:51:00.417Z,96.55
2022-12-15T01:53:30.730Z,95.56
2022-12-15T01:56:00.345Z,95.86
2022-12-15T01:58:29.046Z,97.01
2022-12-15T02:01:00.164Z,95.06
2022-12-15T02:03:29.796Z,94.59
2022-12-15T02:05:59.086Z,94.95
2022-12-15T02:08:27.986Z,94.31
2022-12-15T02:11:06.339Z,95.13
2022-12-15T02:13:41.402Z,94.74
2022-12-15T02:16:18.686Z,95.15
2022-12-15T02:18:56.071Z,95.57
2022-12-15T02:21:30.837Z,93.12
2022-12-15T02:24:29.596Z,93.13
2022-12-15T02:27:31.780Z,93.42
2022-12-15T02:30:21.685Z,92.86
2022-12-15T02:33:09.284Z,91.76
2022-12-15T02:35:43.873Z,92.89
2022-12-15T02:38:13.133Z,93.65
2022-12-15T02:40:42.932Z,93.01
2022-12-15T02:43:12.156Z,91.93
2022-12-15T02:45:50.486Z,92.63
2022-12-15T02:48:28.348Z,93.10
2022-12-15T02:51:08.552Z,93.18
2022-12-15T02:53:56.762Z,92.97
2022-12-15T02:56:27.527Z,92.52
2022-12-15T02:58:59.754Z,92.19
2022-12-15T03:01:33.854Z,92.50
2022-12-15T03:04:03.722Z,91.88
2022-12-15T03:06:32.325Z,92.86
2022-12-15T03:09:00.911Z,92.00
2022-12-15T03:11:29.795Z,91.77
2022-12-15T03:13:58.440Z,91.72
2022-12-15T03:16:27.156Z,91.56
2022-12-15T03:18:57.140Z,91.90
2022-12-15T03:21:25.763Z,91.56
2022-12-15T03:23:54.387Z,91.42
2022-12-15T03:26:23.038Z,91.09
2022-12-15T03:28:51.695Z,92.07
2022-12-15T03:31:20.407Z,90.71
2022-12-15T03:33:49.242Z,91.77
2022-12-15T03:36:19.209Z,91.90
2022-12-15T03:38:47.826Z,92.34
2022-12-15T03:41:17.870Z,92.14
2022-12-15T03:43:50.193Z,92.17
2022-12-15T03:46:18.892Z,91.84
2022-12-15T03:48:47.532Z,91.28
2022-12-15T03:51:16.141Z,92.51
2022-12-15T03:53:47.496Z,92.79
2022-12-15T03:56:16.173Z,93.61
2022-12-15T03:58:44.916Z,94.11
2022-12-15T04:01:14.308Z,94.05
2022-12-15T04:03:42.933Z,94.12
2022-12-15T04:06:11.534Z,94.42
2022-12-15T04:08:40.135Z,95.29
2022-12-15T04:11:10.076Z,95.20
2022-12-15T04:13:38.649Z,95.04
2022-12-15T04:16:07.753Z,95.17
2022-12-15T04:18:36.825Z,94.72
2022-12-15T04:21:04.635Z,95.10
2022-12-15T04:23:33.652Z,95.57
2022-12-15T04:26:19.742Z,95.91
2022-12-15T04:29:07.084Z,95.08
2022-12-15T04:31:53.173Z,95.96
2022-12-15T04:34:40.882Z,95.92
2022-12-15T04:37:29.332Z,96.45
2022-12-15T04:40:16.009Z,95.80
2022-12-15T04:43:04.029Z,96.16
2022-12-15T04:45:51.874Z,96.25
2022-12-15T04:48:38.040Z,95.48
2022-12-15T04:51:24.707Z,95.86
2022-12-15T04:54:10.863Z,96.78
2022-12-15T04:56:57.081Z,96.80
2022-12-15T04:59:42.994Z,96.93
2022-12-15T05:02:30.281Z,97.01
2022-12-15T05:05:16.793Z,96.52
2022-12-15T05:08:03.091Z,96.18
2022-12-15T05:10:49.413Z,96.76
2022-12-15T05:13:35.648Z,95.50
2022-12-15T05:16:23.834Z,95.48
2022-12-15T05:19:11.330Z,96.12
2022-12-15T05:21:57.401Z,95.85
2022-12-15T05:24:43.655Z,95.50
2022-12-15T05:27:29.868Z,95.79
2022-12-15T05:30:15.990Z,96.11
2022-12-15T05:32:44.673Z,95.50
2022-12-15T05:35:14.851Z,95.03
2022-12-15T05:37:43.436Z,95.43
2022-12-15T05:40:12.639Z,95.69
2022-12-15T05:42:41.276Z,95.10
2022-12-15T05:45:11.198Z,95.72
2022-12-15T05:47:39.811Z,95.36
2022-12-15T05:50:09.700Z,95.37
2022-12-15T05:52:39.688Z,95.05
2022-12-15T05:55:08.923Z,95.34
2022-12-15T05:57:37.558Z,95.24
2022-12-15T06:00:07.377Z,94.79
2022-12-15T06:02:36.107Z,95.70
2022-12-15T06:05:05.207Z,95.46
2022-12-15T06:07:34.412Z,94.94
2022-12-15T06:10:04.877Z,96.03
2022-12-15T06:12:33.514Z,95.27
2022-12-15T06:15:02.109Z,95.32
2022-12-15T06:17:30.737Z,95.33
2022-12-15T06:19:59.431Z,95.53
2022-12-15T06:22:29.282Z,94.84
2022-12-15T06:24:57.946Z,95.19
2022-12-15T06:27:27.907Z,94.39
2022-12-15T06:29:56.526Z,94.70
2022-12-15T06:32:25.195Z,93.88
2022-12-15T06:34:53.804Z,93.36
2022-12-15T06:37:22.395Z,93.89
2022-12-15T06:39:51.002Z,94.14
2022-12-15T06:42:19.660Z,93.97
2022-12-15T06:44:49.972Z,94.38
2022-12-15T06:47:18.802Z,93.60
2022-12-15T06:49:47.396Z,95.05
2022-12-15T06:52:16.061Z,94.79
2022-12-15T06:54:44.759Z,94.42
2022-12-15T06:57:13.404Z,94.60
2022-12-15T06:59:42.048Z,94.20
2022-12-15T07:02:16.651Z,94.44
2022-12-15T07:04:45.698Z,93.76
2022-12-15T07:07:14.472Z,93.24
2022-12-15T07:09:43.092Z,93.72
2022-12-15T07:12:13.552Z,93.47
2022-12-15T07:14:42.303Z,94.30
2022-12-15T07:17:11.095Z,93.68
2022-12-15T07:19:41.329Z,94.32
2022-12-15T07:22:10.014Z,94.26
2022-12-15T07:24:38.680Z,93.35
2022-12-15T07:27:07.331Z,93.97
2022-12-15T07:29:35.947Z,94.00
2022-12-15T07:32:04.692Z,93.95
2022-12-15T07:34:33.508Z,93.95
2022-12-15T07:37:03.767Z,94.20
2022-12-15T07:39:32.391Z,93.10
2022-12-15T07:42:01.239Z,93.21
2022-12-15T07:44:30.049Z,93.15
2022-12-15T07:46:58.809Z,93.38
2022-12-15T07:49:27.488Z,93.28
2022-12-15T07:51:58.361Z,93.83
2022-12-15T07:54:29.144Z,94.35
2022-12-15T07:56:57.775Z,93.45
2022-12-15T07:59:26.499Z,93.67
2022-12-15T08:01:55.294Z,93.40
2022-12-15T08:04:24.106Z,93.38
2022-12-15T08:06:54.616Z,92.62
2022-12-15T08:09:23.331Z,93.61
2022-12-15T08:11:53.368Z,93.10
2022-12-15T08:14:22.393Z,92.89
2022-12-15T08:16:51.701Z,93.24
2022-12-15T08:19:20.328Z,93.77
2022-12-15T08:21:49.065Z,93.16
2022-12-15T08:24:19.283Z,92.37
2022-12-15T08:26:50.436Z,91.97
2022-12-15T08:32:09.586Z,93.01
2022-12-15T08:34:39.236Z,93.14
2022-12-15T08:37:07.970Z,92.43
2022-12-15T08:39:36.716Z,92.12
2022-12-15T08:42:05.566Z,91.20
2022-12-15T08:44:35.619Z,92.19
2022-12-15T08:47:04.301Z,91.60
2022-12-15T08:49:32.957Z,89.16
2022-12-15T08:52:02.213Z,88.83
2022-12-15T08:54:32.568Z,89.58
2022-12-15T08:57:01.206Z,91.04
2022-12-15T08:59:29.865Z,89.86
2022-12-15T09:02:00.566Z,90.71
2022-12-15T09:04:29.320Z,90.45
2022-12-15T09:06:58.163Z,91.03
2022-12-15T09:09:26.863Z,91.16
2022-12-15T09:11:55.515Z,91.28
2022-12-15T09:14:29.166Z,91.23
2022-12-15T09:16:59.760Z,90.26
2022-12-15T09:19:28.523Z,89.73
2022-12-15T09:21:57.162Z,89.89
2022-12-15T09:24:34.364Z,90.94
2022-12-15T09:27:04.604Z,90.30
2022-12-15T09:29:33.987Z,90.85
2022-12-15T09:32:08.992Z,89.10
2022-12-15T09:34:41.273Z,87.94
2022-12-15T09:37:09.908Z,87.85
2022-12-15T09:39:39.050Z,88.11
2022-12-15T09:42:23.479Z,87.18
2022-12-15T09:44:55.679Z,85.93
2022-12-15T09:47:31.754Z,85.77
2022-12-15T09:50:03.052Z,85.16
2022-12-15T09:52:33.255Z,85.54
2022-12-15T09:55:02.634Z,85.89
2022-12-15T09:57:37.559Z,86.33
2022-12-15T10:00:17.617Z,86.68
2022-12-15T10:03:14.650Z,86.53
2022-12-15T10:08:45.159Z,85.23
2022-12-15T10:11:24.137Z,85.57
2022-12-15T10:13:57.145Z,86.60
2022-12-15T10:16:30.540Z,87.00
2022-12-15T10:19:09.066Z,86.28
2022-12-15T10:21:37.884Z,86.58
2022-12-15T10:24:17.604Z,87.08
2022-12-15T10:27:00.596Z,85.79
2022-12-15T10:29:40.576Z,86.53
2022-12-15T10:32:20.487Z,86.49
2022-12-15T10:34:50.587Z,86.70
2022-12-15T10:37:21.233Z,86.51
2022-12-15T10:39:51.743Z,86.46
2022-12-15T10:42:22.215Z,85.74
2022-12-15T10:44:52.570Z,84.96
2022-12-15T10:47:24.076Z,85.26
2022-12-15T10:49:54.933Z,85.85
2022-12-15T10:52:27.291Z,85.60
2022-12-15T10:54:56.549Z,85.34
2022-12-15T10:57:30.454Z,84.89
2022-12-15T11:00:27.495Z,85.15
2022-12-15T11:02:56.674Z,85.50
2022-12-15T11:05:27.663Z,85.42
2022-12-15T11:07:57.528Z,84.85
2022-12-15T11:10:28.044Z,86.16
2022-12-15T11:13:00.668Z,85.11
2022-12-15T11:15:47.708Z,85.76
2022-12-15T11:18:23.841Z,85.10
2022-12-15T11:20:59.568Z,84.05
2022-12-15T11:23:34.713Z,84.40
2022-12-15T11:26:07.487Z,85.21
2022-12-15T11:28:42.477Z,85.09
2022-12-15T11:31:19.095Z,84.39
2022-12-15T11:33:47.765Z,84.20
2022-12-15T11:36:28.141Z,84.71
2022-12-15T11:39:00.624Z,86.03
2022-12-15T11:41:36.255Z,85.25
2022-12-15T11:44:15.756Z,85.46
2022-12-15T11:46:48.418Z,85.91
2022-12-15T11:49:41.013Z,86.35
2022-12-15T11:52:17.112Z,84.61
2022-12-15T11:54:49.414Z,81.58
2022-12-15T11:57:42.068Z,82.96
2022-12-15T12:00:13.435Z,81.79
2022-12-15T12:02:51.914Z,82.31
2022-12-15T12:05:31.291Z,82.65
2022-12-15T12:08:11.742Z,83.17
2022-12-15T12:10:45.326Z,83.51
2022-12-15T12:13:19.075Z,83.34
2022-12-15T12:15:56.640Z,83.26
2022-12-15T12:18:28.467Z,83.27
2022-12-15T12:21:00.995Z,83.41
2022-12-15T12:23:37.276Z,83.15
2022-12-15T12:26:09.113Z,83.46
2022-12-15T12:28:45.736Z,82.63
2022-12-15T12:31:22.904Z,83.24
2022-12-15T12:33:56.675Z,82.88
2022-12-15T12:36:25.397Z,82.36
2022-12-15T12:38:56.927Z,81.83
2022-12-15T12:41:34.140Z,81.54
2022-12-15T12:44:07.072Z,81.85
2022-12-15T12:46:40.708Z,81.63
2022-12-15T12:49:12.767Z,81.00
2022-12-15T12:51:42.546Z,82.05
2022-12-15T12:54:41.320Z,82.14
2022-12-15T12:57:31.788Z,82.00
2022-12-15T13:00:02.868Z,80.55
2022-12-15T13:02:47.647Z,81.27
2022-12-15T13:05:32.066Z,82.11
2022-12-15T13:08:40.633Z,82.79
2022-12-15T13:11:58.027Z,80.63
2022-12-15T13:14:44.606Z,81.77
2022-12-15T13:17:27.188Z,81.48
2022-12-15T13:20:24.186Z,83.83
2022-12-15T13:22:53.119Z,82.90
2022-12-15T13:25:48.528Z,82.38
2022-12-15T13:28:28.108Z,83.57
2022-12-15T13:31:35.720Z,83.39
2022-12-15T13:34:16.270Z,83.93
2022-12-15T13:36:54.243Z,85.39
2022-12-15T13:39:58.299Z,83.85
2022-12-15T13:42:45.595Z,84.30
2022-12-15T13:45:36.446Z,83.98
2022-12-15T13:48:21.831Z,84.31
2022-12-15T13:50:56.567Z,85.00
2022-12-15T13:53:26.716Z,84.51
2022-12-15T13:56:08.209Z,84.63
2022-12-15T13:58:42.130Z,84.09
2022-12-15T14:01:32.337Z,84.79
2022-12-15T14:04:12.513Z,85.28
2022-12-15T14:06:47.209Z,85.21
2022-12-15T14:09:22.875Z,85.67
2022-12-15T14:11:53.577Z,85.64
2022-12-15T14:14:25.531Z,84.88
2022-12-15T14:16:57.601Z,84.27
2022-12-15T14:19:38.625Z,86.29
2022-12-15T14:22:27.083Z,85.93
2022-12-15T14:25:01.185Z,86.15
2022-12-15T14:27:31.700Z,85.56
2022-12-15T14:30:20.008Z,86.53
2022-12-15T14:32:50.548Z,86.20
2022-12-15T14:35:26.128Z,87.53
2022-12-15T14:37:56.984Z,87.41
2022-12-15T14:40:28.936Z,86.83
2022-12-15T14:42:58.221Z,87.29
2022-12-15T14:45:29.574Z,86.58
2022-12-15T14:48:38.888Z,86.98
2022-12-15T14:50:51.467Z,86.35
2022-12-15T14:53:21.160Z,86.98
2022-12-15T14:55:50.169Z,86.83
2022-12-15T14:58:28.515Z,88.08
2022-12-15T15:00:57.967Z,87.05
2022-12-15T15:03:35.387Z,86.17
2022-12-15T15:06:08.113Z,86.96
2022-12-15T15:08:44.601Z,87.40
2022-12-15T15:11:23.614Z,86.72
2022-12-15T15:13:56.207Z,86.71
2022-12-15T15:16:25.193Z,87.04
2022-12-15T15:18:55.670Z,87.00
2022-12-15T15:21:27.932Z,87.29
2022-12-15T15:24:01.698Z,86.97
2022-12-15T15:26:31.341Z,86.90
2022-12-15T15:29:00.104Z,87.19
2022-12-15T15:31:40.453Z,87.69
2022-12-15T15:34:11.575Z,87.08
2022-12-15T15:36:41.684Z,86.06
2022-12-15T15:39:14.781Z,87.06
2022-12-15T15:41:43.449Z,86.11
2022-12-15T15:44:14.712Z,85.44
2022-12-15T15:46:47.389Z,86.18
2022-12-15T15:49:18.709Z,87.00
2022-12-15T15:51:48.820Z,87.96
2022-12-15T15:54:19.467Z,87.99
2022-12-15T15:56:48.098Z,87.40
2022-12-15T15:59:19.743Z,88.52
2022-12-15T16:01:53.098Z,88.24
2022-12-15T16:04:21.817Z,87.42
2022-12-15T16:06:52.119Z,87.77
2022-12-15T16:09:20.970Z,86.78
2022-12-15T16:11:49.572Z,88.41
2022-12-15T16:14:18.774Z,87.67
2022-12-15T16:16:47.451Z,88.19
2022-12-15T16:19:16.068Z,88.63
2022-12-15T16:21:44.726Z,86.76
2022-12-15T16:24:17.483Z,87.93
2022-12-15T16:26:49.081Z,87.81
2022-12-15T16:29:19.005Z,85.82
2022-12-15T16:31:47.875Z,86.45
2022-12-15T16:34:17.546Z,86.25
2022-12-15T16:36:46.482Z,86.79
2022-12-15T16:39:26.401Z,86.56
2022-12-15T16:41:56.331Z,87.05
2022-12-15T16:44:25.807Z,86.98
2022-12-15T16:46:54.616Z,87.13
2022-12-15T16:49:23.392Z,87.08
2022-12-15T16:51:53.859Z,86.20
2022-12-15T16:54:25.912Z,84.90
2022-12-15T16:56:55.232Z,84.55
2022-12-15T16:59:35.024Z,84.55
2022-12-15T17:02:22.891Z,85.83
2022-12-15T17:04:51.756Z,85.82
2022-12-15T17:07:21.093Z,86.07
2022-12-15T17:09:51.795Z,86.47
2022-12-15T17:12:20.484Z,85.76
2022-12-15T17:14:49.147Z,85.23
2022-12-15T17:17:19.454Z,86.41
2022-12-15T17:20:20.017Z,85.70
2022-12-15T17:22:38.291Z,86.02
2022-12-15T17:25:14.457Z,85.13
2022-12-15T17:27:43.351Z,85.56
2022-12-15T17:30:14.836Z,85.52
2022-12-15T17:32:43.606Z,84.88
2022-12-15T17:35:12.412Z,84.16
2022-12-15T17:37:41.379Z,84.30
2022-12-15T17:40:18.505Z,84.88
2022-12-15T17:42:47.356Z,84.69
2022-12-15T17:45:18.390Z,84.80
2022-12-15T17:47:47.130Z,84.80
2022-12-15T17:50:16.119Z,84.78
2022-12-15T17:52:46.582Z,85.15
2022-12-15T17:55:23.061Z,86.13
2022-12-15T17:57:53.556Z,84.06
2022-12-15T18:00:25.708Z,84.85
2022-12-15T18:02:54.956Z,84.86
2022-12-15T18:05:25.346Z,84.27
2022-12-15T18:07:55.339Z,84.63
2022-12-15T18:10:31.272Z,83.35
2022-12-15T18:13:00.402Z,83.59
2022-12-15T18:15:31.050Z,84.03
2022-12-15T18:18:00.607Z,85.15
2022-12-15T18:20:29.316Z,84.27
2022-12-15T18:22:57.948Z,84.86
2022-12-15T18:25:30.068Z,85.31
2022-12-15T18:27:59.424Z,84.29
2022-12-15T18:30:28.555Z,84.44
2022-12-15T18:32:59.216Z,84.22
2022-12-15T18:35:32.110Z,84.81
2022-12-15T18:38:00.944Z,84.42
2022-12-15T18:40:31.082Z,84.39
2022-12-15T18:42:59.714Z,84.47
2022-12-15T18:45:28.562Z,83.65
2022-12-15T18:47:57.179Z,84.21
2022-12-15T18:50:26.991Z,83.94
2022-12-15T18:52:59.217Z,84.69
2022-12-15T18:55:31.974Z,84.34
2022-12-15T18:58:01.674Z,84.58
2022-12-15T19:00:31.021Z,84.41
2022-12-15T19:03:01.063Z,84.49
2022-12-15T19:05:32.305Z,85.11
2022-12-15T19:08:04.547Z,84.55
2022-12-15T19:10:35.311Z,89.73
2022-12-15T19:13:04.048Z,83.65
2022-12-15T19:15:32.696Z,84.20
2022-12-15T19:18:18.931Z,83.83
2022-12-15T19:21:05.043Z,82.59
2022-12-15T19:23:34.350Z,84.02
2022-12-15T19:26:04.752Z,84.14
2022-12-15T19:28:33.426Z,84.52
2022-12-15T19:31:02.134Z,83.70
2022-12-15T19:33:31.204Z,83.50
2022-12-15T19:36:00.115Z,83.50
2022-12-15T19:38:30.347Z,82.56
2022-12-15T19:40:59.508Z,83.28
2022-12-15T19:43:29.766Z,83.06
2022-12-15T19:45:58.831Z,83.43
2022-12-15T19:48:28.663Z,84.68
2022-12-15T19:50:57.389Z,85.58
2022-12-15T19:53:27.326Z,85.21
2022-12-15T19:55:57.370Z,82.87
2022-12-15T19:58:30.803Z,83.55
2022-12-15T20:01:00.731Z,83.40
2022-12-15T20:03:31.117Z,82.81
2022-12-15T20:06:01.508Z,83.86
2022-12-15T20:08:34.095Z,85.10
2022-12-15T20:11:03.529Z,84.04
2022-12-15T20:13:33.897Z,84.23
2022-12-15T20:16:02.871Z,83.44
2022-12-15T20:18:31.837Z,84.09
2022-12-15T20:21:01.318Z,83.72
2022-12-15T20:23:31.830Z,84.07
2022-12-15T20:26:01.113Z,83.35
2022-12-15T20:28:30.812Z,83.69
2022-12-15T20:31:00.975Z,82.90
2022-12-15T20:33:29.853Z,83.28
2022-12-15T20:35:58.795Z,83.45
2022-12-15T20:38:30.920Z,82.92
2022-12-15T20:41:00.480Z,82.61
2022-12-15T20:43:31.997Z,83.48
2022-12-15T20:46:06.240Z,83.18
2022-12-15T20:48:36.498Z,82.80
2022-12-15T20:51:09.475Z,82.75
2022-12-15T20:53:39.786Z,83.41
2022-12-15T20:56:08.728Z,83.25
2022-12-15T20:58:40.074Z,84.55
2022-12-15T21:01:19.055Z,83.57
2022-12-15T21:03:48.375Z,83.57
2022-12-15T21:06:17.839Z,83.24
2022-12-15T21:08:46.598Z,83.84
2022-12-15T21:11:18.383Z,83.37
2022-12-15T21:13:48.601Z,83.18
2022-12-15T21:16:20.847Z,83.48
2022-12-15T21:21:40.644Z,83.91
2022-12-15T21:24:16.529Z,83.94
2022-12-15T21:26:45.448Z,83.49
2022-12-15T21:29:15.529Z,83.54
2022-12-15T21:31:46.057Z,84.05
2022-12-15T21:34:15.280Z,83.42
2022-12-15T21:36:45.427Z,85.09
2022-12-15T21:39:20.841Z,84.00
2022-12-15T21:41:49.556Z,83.47
2022-12-15T21:44:19.272Z,83.86
2022-12-15T21:46:49.361Z,84.21
2022-12-15T21:49:20.373Z,83.71
2022-12-15T21:51:52.173Z,84.49
2022-12-15T21:54:26.145Z,85.38
2022-12-15T21:56:57.593Z,85.72
2022-12-15T21:59:28.051Z,86.21
2022-12-15T22:01:58.545Z,87.81
2022-12-15T22:04:30.957Z,89.97
2022-12-15T22:06:59.710Z,89.37
2022-12-15T22:09:28.916Z,90.56
2022-12-15T22:11:57.827Z,90.26
2022-12-15T22:14:29.324Z,90.57
2022-12-15T22:16:59.802Z,90.79
2022-12-15T22:19:28.672Z,90.98
2022-12-15T22:21:57.359Z,90.75
2022-12-15T22:24:25.927Z,91.54
2022-12-15T22:26:54.783Z,92.09
2022-12-15T22:29:24.012Z,91.96
2022-12-15T22:31:53.184Z,92.06
2022-12-15T22:34:27.835Z,91.66
2022-12-15T22:36:56.534Z,91.51
2022-12-15T22:39:25.146Z,91.03
2022-12-15T22:41:54.086Z,91.55
2022-12-15T22:44:24.210Z,92.25
2022-12-15T22:46:54.584Z,91.74
2022-12-15T22:49:26.068Z,89.58
2022-12-15T22:51:55.016Z,90.09
2022-12-15T22:54:25.719Z,91.11
2022-12-15T22:56:56.093Z,90.18
2022-12-15T22:59:28.682Z,90.94
2022-12-15T23:01:57.606Z,90.88
2022-12-15T23:04:27.646Z,90.10
2022-12-15T23:06:56.318Z,90.82
2022-12-15T23:09:25.009Z,91.24
2022-12-15T23:11:52.590Z,90.11
2022-12-15T23:14:41.213Z,91.39
2022-12-15T23:17:09.145Z,91.42
2022-12-15T23:19:39.247Z,92.05
2022-12-15T23:22:07.828Z,92.01
2022-12-15T23:24:36.501Z,92.60
2022-12-15T23:27:05.134Z,93.19
2022-12-15T23:29:33.870Z,93.41
2022-12-15T23:32:02.461Z,92.18
2022-12-15T23:34:31.404Z,93.20
2022-12-15T23:37:02.367Z,93.98
2022-12-15T23:39:31.008Z,92.55
2022-12-15T23:41:59.631Z,93.71
2022-12-15T23:44:28.419Z,92.52
2022-12-15T23:46:57.956Z,93.81
2022-12-15T23:49:26.733Z,94.14
2022-12-15T23:51:55.340Z,93.34
2022-12-15T23:54:25.270Z,93.61
2022-12-15T23:56:53.848Z,94.40
2022-12-15T23:59:23.440Z,94.73
